Time;durP1;ratioP1;P1;durP2;ratioP2;P2;SDS_P1;SDS_P2;PMS_P1;PMS_P2;Temp;Humidity;BMP_temperature;BMP_pressure;BME280_temperature;BME280_humidity;BME280_pressure;Samples;Min_cycle;Max_cycle;Signal;HPM_P1;HPM_P2
2021/12/24 00:00:30;;;;;;;7.50;5.10;;;20.40;49.50;;;;;;5048377;28;20056;-67
2021/12/24 00:02:56;;;;;;;8.18;5.50;;;20.30;49.50;;;;;;5031697;28;20041;-66
2021/12/24 00:05:21;;;;;;;7.90;5.07;;;20.30;49.50;;;;;;5047970;28;20046;-66
2021/12/24 00:07:47;;;;;;;8.30;4.78;;;20.30;49.40;;;;;;5032096;28;20045;-67
2021/12/24 00:10:13;;;;;;;7.03;5.05;;;20.30;49.40;;;;;;5048757;28;20046;-66
2021/12/24 00:12:44;;;;;;;8.55;5.10;;;20.30;49.40;;;;;;5031658;28;20033;-66
2021/12/24 00:15:43;;;;;;;7.50;4.85;;;20.30;49.40;;;;;;5032728;28;20049;-66
2021/12/24 00:18:03;;;;;;;7.95;5.50;;;20.30;49.40;;;;;;5032690;28;20051;-66
2021/12/24 00:22:05;;;;;;;6.97;5.05;;;20.20;49.30;;;;;;5033042;28;20045;-66
2021/12/24 00:37:04;;;;;;;9.32;5.28;;;20.20;49.30;;;;;;5032919;28;20075;-67
2021/12/24 00:39:30;;;;;;;6.90;4.50;;;20.20;50.00;;;;;;5047818;28;20049;-66
2021/12/24 00:41:56;;;;;;;6.65;4.50;;;20.20;49.40;;;;;;5032225;28;20068;-67
2021/12/24 00:44:21;;;;;;;8.68;5.15;;;20.10;49.30;;;;;;5048014;28;20037;-66
2021/12/24 00:46:47;;;;;;;7.28;4.97;;;20.10;49.30;;;;;;5031642;28;20060;-67
2021/12/24 00:49:12;;;;;;;7.68;4.80;;;20.10;49.30;;;;;;5032540;28;20064;-66
2021/12/24 00:52:07;;;;;;;7.55;4.63;;;20.10;49.30;;;;;;5031495;28;20075;-66
2021/12/24 00:57:20;;;;;;;7.00;4.32;;;20.10;49.30;;;;;;5032671;28;20575;-66
2021/12/24 00:59:45;;;;;;;8.43;4.57;;;20.10;49.30;;;;;;5030874;28;20141;-66
2021/12/24 01:02:11;;;;;;;7.72;4.70;;;20.10;49.30;;;;;;5032138;28;20080;-66
2021/12/24 01:04:36;;;;;;;8.27;4.65;;;20.00;49.30;;;;;;5032500;28;20057;-67
2021/12/24 01:07:02;;;;;;;8.07;4.70;;;20.00;49.30;;;;;;5032258;28;20045;-67
2021/12/24 01:09:28;;;;;;;8.35;4.53;;;20.00;49.30;;;;;;5032083;28;20068;-67
2021/12/24 01:11:53;;;;;;;6.78;4.55;;;20.00;49.30;;;;;;5031028;28;20121;-67
2021/12/24 01:14:21;;;;;;;7.53;4.40;;;20.00;49.40;;;;;;5032033;28;20052;-66
2021/12/24 01:17:00;;;;;;;7.90;4.40;;;20.00;49.40;;;;;;5047507;28;20050;-66
2021/12/24 01:19:26;;;;;;;6.03;4.00;;;20.00;49.40;;;;;;5032682;28;20064;-66
2021/12/24 01:22:30;;;;;;;6.28;4.13;;;20.00;49.40;;;;;;5031860;28;20050;-67
2021/12/24 01:24:55;;;;;;;6.03;3.83;;;19.90;49.40;;;;;;5048341;28;20467;-67
2021/12/24 01:27:41;;;;;;;6.75;4.57;;;20.00;49.40;;;;;;5036575;28;20050;-67
2021/12/24 01:37:52;;;;;;;8.13;4.15;;;19.90;50.10;;;;;;5035549;28;20053;-66
2021/12/24 01:39:18;;;;;;;5.70;3.92;;;19.90;49.40;;;;;;5035921;28;20049;-66
2021/12/24 01:41:19;;;;;;;6.07;3.67;;;19.90;49.40;;;;;;5035276;28;20049;-67
2021/12/24 01:43:45;;;;;;;5.97;3.63;;;19.90;49.40;;;;;;5035401;28;20081;-66
2021/12/24 01:46:12;;;;;;;5.88;3.65;;;19.90;49.40;;;;;;5049920;28;20122;-66
2021/12/24 01:48:38;;;;;;;6.05;3.55;;;20.00;49.50;;;;;;5036143;28;20171;-66
2021/12/24 01:51:04;;;;;;;5.78;3.80;;;19.90;49.40;;;;;;5034720;28;20124;-66
2021/12/24 01:53:33;;;;;;;5.50;3.70;;;20.00;49.50;;;;;;5034395;28;20072;-66
2021/12/24 01:55:59;;;;;;;5.13;3.50;;;20.00;49.50;;;;;;5035529;28;20041;-66
2021/12/24 01:58:25;;;;;;;5.68;3.85;;;20.00;49.50;;;;;;5034079;28;20517;-66
2021/12/24 02:00:53;;;;;;;4.75;3.42;;;20.00;49.40;;;;;;5035122;28;20405;-66
2021/12/24 02:03:19;;;;;;;6.70;3.60;;;20.00;49.40;;;;;;5035384;28;20171;-66
2021/12/24 02:05:44;;;;;;;5.03;3.30;;;20.00;49.40;;;;;;5034431;28;20402;-66
2021/12/24 02:08:10;;;;;;;5.57;3.35;;;20.00;49.40;;;;;;5034838;28;20508;-66
2021/12/24 02:10:36;;;;;;;5.20;3.10;;;20.00;49.40;;;;;;5033066;28;20103;-66
2021/12/24 02:13:02;;;;;;;5.50;3.30;;;20.00;49.50;;;;;;5030523;28;20053;-66
2021/12/24 02:28:41;;;;;;;4.20;2.83;;;20.10;49.50;;;;;;5015261;28;20046;-67
2021/12/24 02:31:08;;;;;;;3.92;2.63;;;20.10;49.60;;;;;;5014136;28;20489;-66
2021/12/24 02:33:33;;;;;;;4.15;2.50;;;20.10;49.60;;;;;;5014748;28;20448;-67
2021/12/24 02:35:59;;;;;;;4.63;2.80;;;20.10;49.50;;;;;;5014494;28;20045;-66
2021/12/24 02:38:25;;;;;;;3.88;2.83;;;20.10;49.50;;;;;;5014302;28;20064;-66
2021/12/24 02:40:50;;;;;;;5.00;2.78;;;20.10;49.50;;;;;;5014373;28;20497;-66
2021/12/24 02:43:19;;;;;;;4.20;2.67;;;20.10;49.50;;;;;;5014038;28;20042;-66
2021/12/24 02:45:47;;;;;;;3.25;2.30;;;20.10;49.50;;;;;;5014338;28;20050;-66
2021/12/24 02:53:58;;;;;;;4.18;2.45;;;20.20;49.50;;;;;;5014427;28;20041;-66
2021/12/24 02:56:35;;;;;;;3.83;2.38;;;20.20;49.50;;;;;;5014973;28;20050;-66
2021/12/24 02:59:05;;;;;;;4.03;2.33;;;20.20;49.60;;;;;;5014363;28;20956;-66
2021/12/24 03:01:33;;;;;;;5.22;2.58;;;20.20;49.60;;;;;;5024745;28;20098;-66
2021/12/24 03:03:59;;;;;;;3.53;2.28;;;20.20;49.60;;;;;;5032722;28;20057;-66
2021/12/24 03:06:28;;;;;;;3.05;2.10;;;20.20;49.60;;;;;;5032651;28;20057;-67
2021/12/24 03:08:53;;;;;;;3.20;2.15;;;20.20;49.70;;;;;;5033829;28;20045;-67
2021/12/24 03:11:19;;;;;;;3.92;2.38;;;20.20;50.00;;;;;;5034296;28;20428;-66
2021/12/24 03:13:45;;;;;;;2.92;2.00;;;20.20;49.60;;;;;;5033875;28;20413;-66
2021/12/24 03:16:10;;;;;;;4.20;2.20;;;20.20;49.60;;;;;;5032371;28;20489;-67
2021/12/24 03:18:38;;;;;;;3.67;2.60;;;20.20;49.60;;;;;;5034270;28;20059;-67
2021/12/24 03:26:05;;;;;;;2.72;1.63;;;20.20;49.70;;;;;;5033795;28;20088;-67
2021/12/24 03:28:30;;;;;;;3.33;1.63;;;20.20;49.70;;;;;;5033568;28;20071;-67
2021/12/24 03:30:56;;;;;;;4.30;2.10;;;20.20;49.70;;;;;;5033600;28;20469;-67
2021/12/24 03:33:21;;;;;;;2.65;1.67;;;20.20;49.60;;;;;;5034250;28;20046;-67
2021/12/24 03:35:47;;;;;;;3.08;1.80;;;20.30;49.70;;;;;;5033276;28;20042;-67
2021/12/24 03:38:12;;;;;;;3.05;1.70;;;20.30;49.80;;;;;;5048939;28;20049;-67
2021/12/24 03:40:38;;;;;;;3.08;1.95;;;20.30;49.80;;;;;;5033595;28;20049;-67
2021/12/24 03:43:03;;;;;;;3.20;1.70;;;20.30;49.80;;;;;;5033197;28;20045;-67
2021/12/24 03:45:43;;;;;;;2.42;1.60;;;20.30;49.80;;;;;;5033339;28;20041;-67
2021/12/24 03:48:20;;;;;;;2.72;1.80;;;20.30;49.80;;;;;;5033371;28;20077;-67
2021/12/24 03:50:58;;;;;;;2.30;1.55;;;20.30;49.80;;;;;;5048498;28;20053;-67
2021/12/24 03:56:07;;;;;;;2.33;1.50;;;20.30;49.80;;;;;;5032989;28;20319;-67
2021/12/24 03:58:33;;;;;;;2.47;1.50;;;20.30;49.80;;;;;;5048340;28;20050;-66
2021/12/24 04:00:59;;;;;;;2.03;1.30;;;20.30;49.80;;;;;;5033484;28;20038;-67
2021/12/24 04:03:24;;;;;;;2.30;1.42;;;20.30;49.90;;;;;;5032173;28;20521;-66
2021/12/24 04:05:50;;;;;;;2.08;1.20;;;20.30;49.80;;;;;;5048146;28;20041;-67
2021/12/24 04:08:15;;;;;;;2.72;1.30;;;20.30;50.60;;;;;;5033366;28;20092;-66
2021/12/24 04:10:41;;;;;;;2.53;1.50;;;20.30;49.90;;;;;;5031270;28;20083;-67
2021/12/24 04:13:11;;;;;;;2.95;1.40;;;20.30;49.90;;;;;;5033087;28;20041;-65
2021/12/24 04:15:37;;;;;;;2.25;1.40;;;20.30;49.90;;;;;;5033233;28;20068;-67
2021/12/24 04:18:13;;;;;;;1.90;1.33;;;20.40;50.00;;;;;;5047057;28;20159;-66
2021/12/24 04:26:07;;;;;;;2.63;1.50;;;20.40;50.00;;;;;;5031193;28;20049;-66
2021/12/24 04:28:33;;;;;;;1.83;1.10;;;20.40;50.00;;;;;;5033004;28;20096;-66
2021/12/24 04:31:00;;;;;;;1.65;1.05;;;20.40;50.00;;;;;;5032577;28;20041;-66
2021/12/24 04:33:33;;;;;;;2.42;1.30;;;20.40;50.00;;;;;;5047583;28;20049;-67
2021/12/24 04:36:20;;;;;;;1.85;1.30;;;20.40;50.10;;;;;;5032612;28;20041;-66
2021/12/24 04:39:08;;;;;;;2.08;1.10;;;20.40;50.10;;;;;;5031992;28;20079;-67
2021/12/24 05:03:33;;;;;;;2.38;1.33;;;20.50;50.10;;;;;;5033154;28;20037;-66
2021/12/24 05:06:49;;;;;;;2.40;1.45;;;20.50;50.20;;;;;;5035669;28;20060;-66
2021/12/24 05:08:56;;;;;;;1.90;1.00;;;20.50;50.20;;;;;;5035303;28;20664;-66
2021/12/24 05:11:22;;;;;;;2.08;1.13;;;20.50;50.20;;;;;;5035640;28;20049;-66
2021/12/24 05:13:48;;;;;;;2.22;1.30;;;20.40;50.20;;;;;;5035789;28;20091;-66
2021/12/24 05:21:33;;;;;;;1.85;0.98;;;20.50;50.20;;;;;;5035998;28;20489;-66
2021/12/24 05:24:04;;;;;;;1.83;0.88;;;20.50;50.20;;;;;;5035993;28;20049;-66
2021/12/24 05:26:30;;;;;;;2.08;1.20;;;20.50;50.20;;;;;;5036208;28;20045;-66
2021/12/24 05:28:56;;;;;;;2.03;1.15;;;20.50;50.20;;;;;;5035457;28;20116;-66
2021/12/24 05:31:22;;;;;;;2.65;1.10;;;20.50;50.20;;;;;;5018385;28;20041;-66
2021/12/24 05:33:48;;;;;;;3.05;1.30;;;20.50;50.10;;;;;;5034549;28;20103;-66
2021/12/24 05:36:13;;;;;;;2.42;1.10;;;20.50;50.20;;;;;;5035393;28;20052;-66
2021/12/24 05:38:39;;;;;;;2.55;1.20;;;20.50;50.20;;;;;;5036145;28;20049;-67
2021/12/24 05:41:04;;;;;;;1.95;1.15;;;20.50;50.20;;;;;;5035930;28;20049;-67
2021/12/24 05:43:30;;;;;;;3.50;1.65;;;20.50;50.20;;;;;;5035509;28;20079;-67
2021/12/24 05:45:55;;;;;;;2.42;1.00;;;20.60;50.20;;;;;;5035842;28;20478;-67
2021/12/24 05:48:21;;;;;;;1.92;1.02;;;20.60;50.20;;;;;;5034583;28;20417;-67
2021/12/24 05:50:47;;;;;;;2.78;1.20;;;20.60;50.30;;;;;;5034970;28;20421;-67
2021/12/24 05:53:12;;;;;;;3.17;1.25;;;20.60;50.20;;;;;;5034660;28;20110;-66
2021/12/24 05:55:38;;;;;;;2.20;1.25;;;20.60;50.30;;;;;;5035355;28;20045;-66
2021/12/24 05:58:07;;;;;;;3.30;1.23;;;20.60;50.30;;;;;;5033777;28;20128;-67
2021/12/24 06:00:35;;;;;;;1.77;0.98;;;20.60;50.30;;;;;;5035984;28;20120;-66
2021/12/24 06:03:01;;;;;;;2.33;1.00;;;20.60;50.30;;;;;;5034975;28;20049;-67
2021/12/24 06:05:26;;;;;;;2.00;1.20;;;20.60;50.30;;;;;;5035381;28;20045;-67
2021/12/24 06:07:52;;;;;;;3.30;1.20;;;20.60;50.30;;;;;;5033865;28;20049;-66
2021/12/24 06:10:17;;;;;;;2.53;1.10;;;20.60;50.20;;;;;;5034420;28;20489;-66
2021/12/24 06:12:43;;;;;;;2.33;1.30;;;20.60;50.20;;;;;;5035239;28;20048;-67
2021/12/24 06:15:09;;;;;;;2.60;1.30;;;20.60;50.20;;;;;;5034356;28;20041;-67
2021/12/24 06:17:37;;;;;;;2.38;1.02;;;20.60;50.30;;;;;;5033542;28;20056;-66
2021/12/24 06:20:04;;;;;;;;;;;20.60;50.30;;;;;;5033841;28;20045;-67
2021/12/24 06:22:29;;;;;;;4.00;1.20;;;20.60;50.30;;;;;;5035603;28;20039;-66
2021/12/24 06:24:55;;;;;;;3.25;1.10;;;20.60;50.30;;;;;;5034382;28;20049;-67
2021/12/24 06:27:20;;;;;;;3.70;1.10;;;20.60;50.30;;;;;;5034851;28;20052;-67
2021/12/24 06:29:46;;;;;;;3.33;1.10;;;20.60;50.30;;;;;;5035138;28;20548;-67
2021/12/24 06:32:11;;;;;;;3.53;1.00;;;20.60;50.40;;;;;;5034539;28;20049;-66
2021/12/24 06:34:37;;;;;;;2.63;1.13;;;20.70;50.40;;;;;;5035134;28;20034;-67
2021/12/24 06:37:03;;;;;;;2.05;1.02;;;20.70;50.40;;;;;;5035028;28;20095;-66
2021/12/24 06:39:29;;;;;;;1.75;1.13;;;20.60;50.40;;;;;;5034500;28;20048;-67
2021/12/24 06:41:54;;;;;;;3.05;1.23;;;20.70;50.40;;;;;;5033760;28;20038;-67
2021/12/24 06:44:21;;;;;;;3.35;1.20;;;20.70;50.40;;;;;;5035027;28;20063;-67
2021/12/24 06:46:47;;;;;;;2.58;1.13;;;20.70;50.40;;;;;;5033923;28;20060;-67
2021/12/24 06:49:13;;;;;;;3.97;1.65;;;20.70;50.30;;;;;;5033485;28;20046;-67
2021/12/24 06:51:38;;;;;;;1.95;1.10;;;20.70;50.40;;;;;;5034904;28;20150;-67
2021/12/24 06:54:04;;;;;;;3.42;1.08;;;20.70;50.40;;;;;;5032752;28;20501;-67
2021/12/24 06:56:30;;;;;;;3.95;1.40;;;20.70;50.40;;;;;;5034885;28;20098;-67
2021/12/24 06:58:55;;;;;;;2.47;1.40;;;20.70;50.40;;;;;;5033772;28;20045;-67
2021/12/24 07:01:21;;;;;;;3.25;1.10;;;20.70;50.40;;;;;;5034264;28;20099;-67
2021/12/24 07:03:47;;;;;;;4.18;1.35;;;20.70;50.40;;;;;;5034410;28;20041;-67
2021/12/24 07:06:13;;;;;;;4.03;1.10;;;20.70;50.40;;;;;;5032598;28;20038;-67
2021/12/24 07:08:38;;;;;;;4.55;1.88;;;20.70;50.40;;;;;;5034466;28;20081;-67
2021/12/24 07:11:04;;;;;;;4.63;1.42;;;20.70;50.40;;;;;;5034036;28;20041;-67
2021/12/24 07:13:29;;;;;;;4.53;1.70;;;20.70;50.40;;;;;;5033577;28;20048;-67
2021/12/24 07:15:55;;;;;;;2.13;1.25;;;20.70;50.40;;;;;;5033936;28;20037;-67
2021/12/24 07:18:20;;;;;;;4.60;1.60;;;20.70;50.40;;;;;;5034478;28;20543;-64
2021/12/24 07:20:46;;;;;;;4.38;1.90;;;20.70;50.40;;;;;;5033266;28;20452;-67
2021/12/24 07:23:11;;;;;;;5.05;1.73;;;20.70;50.40;;;;;;5033175;28;20115;-67
2021/12/24 07:25:37;;;;;;;6.43;2.33;;;20.80;50.50;;;;;;5034121;28;20112;-67
2021/12/24 07:28:03;;;;;;;6.88;2.42;;;20.80;50.50;;;;;;5033240;28;20049;-67
2021/12/24 07:30:28;;;;;;;5.88;2.22;;;20.80;50.50;;;;;;5032732;28;20120;-67
2021/12/24 07:32:54;;;;;;;4.63;2.20;;;20.80;50.50;;;;;;5032634;28;20099;-67
2021/12/24 07:35:19;;;;;;;5.38;2.53;;;20.80;50.40;;;;;;5033387;28;20053;-67
2021/12/24 07:37:45;;;;;;;5.28;2.65;;;20.80;50.40;;;;;;5032100;28;20037;-67
2021/12/24 07:40:15;;;;;;;6.25;2.50;;;20.80;50.50;;;;;;5032669;28;20056;-66
2021/12/24 07:42:40;;;;;;;7.30;2.50;;;20.80;50.50;;;;;;5033307;28;20037;-67
2021/12/24 07:45:08;;;;;;;5.82;2.60;;;20.80;50.50;;;;;;5032366;28;20125;-67
2021/12/24 07:47:38;;;;;;;6.63;2.40;;;20.80;50.50;;;;;;5032223;28;20525;-68
2021/12/24 07:50:17;;;;;;;5.95;2.70;;;20.80;50.50;;;;;;5032567;28;20052;-66
2021/12/24 07:52:43;;;;;;;7.38;2.50;;;20.80;50.60;;;;;;5032300;28;20098;-66
2021/12/24 07:55:10;;;;;;;7.40;2.58;;;20.80;50.80;;;;;;5031799;28;20068;-68
2021/12/24 07:57:36;;;;;;;10.15;3.25;;;20.80;50.80;;;;;;5032138;28;20160;-66
2021/12/24 08:00:05;;;;;;;9.45;2.75;;;20.80;50.90;;;;;;5032831;28;20469;-68
2021/12/24 08:02:30;;;;;;;7.13;2.50;;;20.90;51.00;;;;;;5033090;28;20135;-67
2021/12/24 08:04:57;;;;;;;5.68;2.70;;;20.90;51.10;;;;;;5015456;28;20088;-67
2021/12/24 08:07:22;;;;;;;7.10;2.47;;;20.90;51.20;;;;;;5032004;28;20437;-68
2021/12/24 08:09:51;;;;;;;8.77;2.95;;;20.90;51.20;;;;;;5025405;28;20156;-69
2021/12/24 08:12:17;;;;;;;6.90;2.85;;;20.90;51.30;;;;;;5011514;28;20084;-67
2021/12/24 08:14:43;;;;;;;7.93;2.95;;;20.90;51.40;;;;;;5013023;28;20145;-69
2021/12/24 08:17:09;;;;;;;6.78;2.60;;;20.90;51.50;;;;;;5012805;28;20494;-66
2021/12/24 08:19:35;;;;;;;7.93;2.65;;;21.00;51.70;;;;;;5013179;28;20046;-67
2021/12/24 08:22:00;;;;;;;8.07;2.63;;;20.90;51.70;;;;;;5013124;28;20103;-69
2021/12/24 08:24:26;;;;;;;9.45;3.10;;;20.90;51.80;;;;;;5012502;28;20065;-66
2021/12/24 08:26:51;;;;;;;7.10;2.67;;;20.90;51.80;;;;;;5012746;28;20049;-68
2021/12/24 08:29:17;;;;;;;9.02;2.83;;;21.00;52.00;;;;;;5013044;28;20470;-68
2021/12/24 08:31:43;;;;;;;7.07;2.55;;;21.00;52.00;;;;;;5012295;28;20042;-68
2021/12/24 08:34:10;;;;;;;8.93;2.85;;;21.00;52.20;;;;;;5012794;28;20052;-70
2021/12/24 08:36:36;;;;;;;10.98;3.30;;;21.00;52.20;;;;;;5013064;28;20056;-69
2021/12/24 08:39:02;;;;;;;5.82;2.55;;;21.00;52.20;;;;;;5012149;28;20735;-70
2021/12/24 08:41:27;;;;;;;9.95;2.90;;;21.00;52.30;;;;;;5011849;28;20099;-69
2021/12/24 08:43:53;;;;;;;6.30;2.58;;;21.00;52.30;;;;;;5012373;28;20042;-71
2021/12/24 08:46:18;;;;;;;8.05;2.58;;;21.00;52.30;;;;;;5010810;28;20054;-68
2021/12/24 08:48:44;;;;;;;6.22;3.00;;;21.00;52.30;;;;;;5012870;28;20073;-70
2021/12/24 08:51:10;;;;;;;7.47;2.95;;;21.00;52.40;;;;;;5011681;28;20046;-67
2021/12/24 08:53:35;;;;;;;6.53;2.72;;;21.00;52.30;;;;;;5012001;28;20038;-68
2021/12/24 08:56:02;;;;;;;7.40;2.92;;;21.00;52.40;;;;;;5012557;28;20050;-70
2021/12/24 08:58:28;;;;;;;7.97;2.90;;;21.10;52.40;;;;;;5012415;28;20049;-71
2021/12/24 09:00:53;;;;;;;7.03;3.05;;;21.00;52.50;;;;;;5010791;28;20046;-69
2021/12/24 09:03:19;;;;;;;8.85;3.08;;;21.10;52.50;;;;;;5011646;28;20045;-70
2021/12/24 09:05:45;;;;;;;5.57;2.53;;;21.10;52.80;;;;;;5010891;28;20167;-68
2021/12/24 09:08:11;;;;;;;6.88;2.53;;;21.10;52.50;;;;;;5012377;28;20141;-68
2021/12/24 09:10:36;;;;;;;8.95;2.83;;;21.10;52.60;;;;;;5011595;28;20046;-68
2021/12/24 09:13:02;;;;;;;6.05;2.75;;;21.10;52.60;;;;;;5011783;28;20041;-68
2021/12/24 09:15:30;;;;;;;7.57;2.53;;;21.10;52.70;;;;;;5012537;28;20188;-67
2021/12/24 09:17:57;;;;;;;8.68;2.83;;;21.10;52.70;;;;;;5012574;28;20042;-68
2021/12/24 09:20:27;;;;;;;6.03;2.42;;;21.10;52.70;;;;;;5012067;28;20367;-67
2021/12/24 09:22:55;;;;;;;6.15;2.50;;;21.10;52.70;;;;;;5011966;28;20057;-69
2021/12/24 09:25:22;;;;;;;7.40;2.80;;;21.10;52.80;;;;;;5012919;28;20104;-70
2021/12/24 09:27:48;;;;;;;5.78;2.20;;;21.10;52.70;;;;;;5011867;28;20073;-70
2021/12/24 09:30:14;;;;;;;6.40;2.50;;;21.10;52.80;;;;;;5011081;28;20335;-67
2021/12/24 09:32:39;;;;;;;4.80;2.55;;;21.10;52.90;;;;;;5011259;28;20117;-68
2021/12/24 09:35:07;;;;;;;5.38;2.20;;;21.20;52.90;;;;;;5010205;28;20072;-67
2021/12/24 09:37:32;;;;;;;7.43;3.20;;;21.20;52.90;;;;;;5012417;28;20398;-68
2021/12/24 09:39:58;;;;;;;4.47;2.00;;;21.20;52.90;;;;;;5010967;28;20072;-69
2021/12/24 09:42:24;;;;;;;6.10;2.47;;;21.20;52.90;;;;;;5022939;28;20037;-69
2021/12/24 09:44:49;;;;;;;6.45;2.55;;;21.20;53.00;;;;;;5031501;28;20034;-69
2021/12/24 09:47:15;;;;;;;8.88;2.58;;;21.20;52.90;;;;;;5035754;28;20041;-69
2021/12/24 09:49:41;;;;;;;6.47;2.38;;;21.20;53.00;;;;;;5033414;28;20046;-69
2021/12/24 09:52:06;;;;;;;8.10;2.40;;;21.20;52.90;;;;;;5034887;28;20046;-71
2021/12/24 09:54:32;;;;;;;5.60;2.33;;;21.20;52.90;;;;;;5018341;28;20047;-70
2021/12/24 09:56:58;;;;;;;5.22;2.15;;;21.20;53.00;;;;;;5033432;28;20400;-68
2021/12/24 09:59:23;;;;;;;6.45;1.88;;;21.20;53.00;;;;;;5035575;28;20424;-66
2021/12/24 10:01:59;;;;;;;5.75;2.30;;;21.20;53.00;;;;;;5033566;28;20046;-67
2021/12/24 10:04:27;;;;;;;8.82;1.88;;;21.20;53.00;;;;;;5041110;28;20040;-72
2021/12/24 10:07:03;;;;;;;4.43;1.75;;;21.20;53.10;;;;;;5038873;28;20041;-72
2021/12/24 10:09:38;;;;;;;6.80;2.15;;;21.20;53.10;;;;;;5041915;28;20100;-66
2021/12/24 10:12:08;;;;;;;5.07;1.77;;;21.20;53.00;;;;;;5034789;28;20040;-70
2021/12/24 10:14:39;;;;;;;6.03;2.17;;;21.20;52.80;;;;;;5031504;28;20045;-70
2021/12/24 10:17:19;;;;;;;7.07;2.28;;;21.20;52.80;;;;;;5032809;28;20034;-70
2021/12/24 10:19:53;;;;;;;8.15;2.60;;;21.30;52.90;;;;;;5033617;28;20033;-69
2021/12/24 10:22:19;;;;;;;4.32;2.00;;;21.20;52.90;;;;;;5040259;28;20045;-66
2021/12/24 10:25:12;;;;;;;7.30;2.42;;;21.30;52.90;;;;;;5048775;28;20466;-69
2021/12/24 10:27:38;;;;;;;6.47;2.22;;;21.30;52.90;;;;;;5035234;28;20046;-68
2021/12/24 10:30:23;;;;;;;5.63;2.50;;;21.30;52.90;;;;;;5032975;28;20397;-67
2021/12/24 10:32:50;;;;;;;5.47;2.50;;;21.30;52.90;;;;;;5034576;28;20167;-68
2021/12/24 10:35:20;;;;;;;9.10;2.47;;;21.30;53.00;;;;;;5035175;28;20057;-68
2021/12/24 10:37:45;;;;;;;9.93;2.58;;;21.30;53.60;;;;;;5034263;28;20103;-67
2021/12/24 10:40:11;;;;;;;7.57;2.78;;;21.30;52.90;;;;;;5050084;28;20049;-69
2021/12/24 10:42:38;;;;;;;8.98;2.90;;;21.30;52.80;;;;;;5016997;28;20080;-68
2021/12/24 10:45:05;;;;;;;7.70;2.83;;;21.30;52.80;;;;;;5033778;28;20053;-69
2021/12/24 10:47:33;;;;;;;7.32;3.00;;;21.30;52.80;;;;;;5034572;28;20509;-71
2021/12/24 10:55:24;;;;;;;6.72;2.83;;;21.30;53.60;;;;;;5034991;28;20067;-68
2021/12/24 10:57:54;;;;;;;7.28;3.00;;;21.30;53.60;;;;;;5034302;28;20038;-69
2021/12/24 11:00:26;;;;;;;7.57;3.00;;;21.30;53.60;;;;;;5033666;28;20168;-67
2021/12/24 11:02:54;;;;;;;5.82;2.70;;;21.30;53.60;;;;;;5034469;28;20045;-68
2021/12/24 11:05:28;;;;;;;12.90;2.95;;;21.30;53.60;;;;;;5032978;28;20050;-69
2021/12/24 11:07:53;;;;;;;8.48;2.97;;;21.30;53.70;;;;;;5032688;28;20095;-68
2021/12/24 11:10:22;;;;;;;9.15;2.80;;;21.40;53.80;;;;;;5034416;28;20045;-68
2021/12/24 11:12:58;;;;;;;7.45;2.80;;;21.40;53.80;;;;;;5033556;28;20482;-68
2021/12/24 11:15:32;;;;;;;5.97;2.90;;;21.40;53.80;;;;;;5032847;28;20050;-68
2021/12/24 11:18:17;;;;;;;9.13;2.63;;;21.40;53.80;;;;;;5034013;28;20045;-67
2021/12/24 11:20:43;;;;;;;6.20;2.65;;;21.40;53.80;;;;;;5031823;28;20042;-68
2021/12/24 11:23:14;;;;;;;7.90;3.13;;;21.40;53.80;;;;;;5032980;28;20140;-69
2021/12/24 11:25:44;;;;;;;7.85;2.67;;;21.40;53.80;;;;;;5033920;28;20091;-68
2021/12/24 11:28:11;;;;;;;6.28;2.63;;;21.40;53.80;;;;;;5031608;28;20049;-68
2021/12/24 11:30:38;;;;;;;5.18;2.55;;;21.40;53.70;;;;;;5032908;28;20490;-68
2021/12/24 11:33:04;;;;;;;9.25;2.78;;;21.40;53.70;;;;;;5033113;28;20471;-68
2021/12/24 11:35:30;;;;;;;6.68;2.40;;;21.40;53.80;;;;;;5032433;28;20080;-68
2021/12/24 11:37:55;;;;;;;7.57;2.40;;;21.40;53.80;;;;;;5032996;28;20044;-68
2021/12/24 11:40:23;;;;;;;6.47;2.60;;;21.40;53.80;;;;;;5032691;28;20033;-68
2021/12/24 11:42:53;;;;;;;7.32;2.28;;;21.40;53.80;;;;;;5031349;28;20576;-68
2021/12/24 11:45:22;;;;;;;6.65;1.92;;;21.40;53.80;;;;;;5031724;28;20046;-69
2021/12/24 11:47:48;;;;;;;6.32;2.25;;;21.40;53.80;;;;;;5031010;28;20038;-69
2021/12/24 11:50:14;;;;;;;5.38;2.35;;;21.40;53.80;;;;;;5032427;28;20074;-70
2021/12/24 11:52:40;;;;;;;6.70;2.15;;;21.40;53.80;;;;;;5031364;28;20408;-70
2021/12/24 11:55:06;;;;;;;4.80;2.17;;;21.40;53.80;;;;;;5014551;28;20431;-69
2021/12/24 11:57:31;;;;;;;8.05;2.17;;;21.40;53.80;;;;;;5006182;28;20045;-68
2021/12/24 11:59:57;;;;;;;5.65;2.40;;;21.40;53.80;;;;;;5032465;28;20041;-68
2021/12/24 12:02:45;;;;;;;4.57;1.88;;;21.40;53.80;;;;;;4998018;28;20532;-69
2021/12/24 12:05:24;;;;;;;4.90;1.92;;;21.40;53.70;;;;;;5030706;28;20072;-69
2021/12/24 12:07:50;;;;;;;5.15;2.15;;;21.40;53.80;;;;;;5031159;28;20050;-67
2021/12/24 12:10:47;;;;;;;6.47;2.13;;;21.40;53.70;;;;;;5030749;28;20049;-67
2021/12/24 12:13:46;;;;;;;6.90;2.00;;;21.40;53.60;;;;;;5030348;28;20068;-68
2021/12/24 12:16:17;;;;;;;4.68;1.77;;;21.30;53.50;;;;;;5032615;28;20331;-67
2021/12/24 12:18:47;;;;;;;4.47;2.22;;;21.30;53.50;;;;;;5030540;28;20132;-67
2021/12/24 12:21:13;;;;;;;5.80;1.85;;;21.30;53.50;;;;;;5033168;28;20124;-67
2021/12/24 12:24:56;;;;;;;5.10;2.00;;;21.30;53.50;;;;;;5032587;28;20056;-68
2021/12/24 12:26:43;;;;;;;8.88;2.13;;;21.30;53.50;;;;;;5031499;28;20046;-66
2021/12/24 12:29:21;;;;;;;3.95;1.60;;;21.30;53.50;;;;;;5030527;28;20049;-68
2021/12/24 12:31:48;;;;;;;4.18;1.75;;;21.30;53.40;;;;;;5030667;28;20042;-64
2021/12/24 12:34:39;;;;;;;5.85;1.65;;;21.30;53.40;;;;;;5025353;28;20517;-65
2021/12/24 12:37:28;;;;;;;3.90;1.55;;;21.20;53.30;;;;;;5026975;28;20057;-68
2021/12/24 12:40:01;;;;;;;5.90;1.70;;;21.20;53.40;;;;;;5044871;28;20448;-68
2021/12/24 12:42:57;;;;;;;4.25;1.52;;;21.20;53.50;;;;;;5031477;28;20045;-68
2021/12/24 12:45:32;;;;;;;2.70;1.13;;;21.20;53.50;;;;;;5046964;28;20050;-68
2021/12/24 12:48:00;;;;;;;6.18;1.85;;;21.20;53.50;;;;;;5047431;28;20076;-68
2021/12/24 12:50:26;;;;;;;5.13;1.70;;;21.20;53.60;;;;;;5030648;28;20041;-67
2021/12/24 12:53:11;;;;;;;5.32;1.70;;;21.20;53.70;;;;;;5031181;28;20049;-67
2021/12/24 12:55:37;;;;;;;6.15;1.65;;;21.20;53.80;;;;;;5031231;28;20402;-65
2021/12/24 12:58:22;;;;;;;5.90;1.70;;;21.20;54.70;;;;;;5030721;28;20041;-65
2021/12/24 13:01:25;;;;;;;5.55;1.52;;;21.20;54.10;;;;;;5032473;28;20054;-65
2021/12/24 13:04:03;;;;;;;5.82;1.40;;;21.20;54.10;;;;;;5030813;28;20378;-65
2021/12/24 13:06:42;;;;;;;4.72;1.77;;;21.20;54.20;;;;;;5046708;28;20413;-65
2021/12/24 13:09:19;;;;;;;4.15;1.60;;;21.20;54.10;;;;;;5032789;28;20046;-65
2021/12/24 13:11:46;;;;;;;3.33;1.50;;;21.20;54.20;;;;;;5031751;28;20045;-65
2021/12/24 13:14:12;;;;;;;5.32;1.55;;;21.20;54.20;;;;;;5031178;28;20120;-65
2021/12/24 13:17:05;;;;;;;6.20;1.60;;;21.20;54.30;;;;;;5029980;28;20405;-65
2021/12/24 13:19:57;;;;;;;4.10;1.40;;;21.30;54.40;;;;;;5031115;28;20046;-65
2021/12/24 13:22:30;;;;;;;3.50;1.50;;;21.30;54.40;;;;;;5035686;28;20441;-65
2021/12/24 13:25:05;;;;;;;4.13;1.55;;;21.30;54.50;;;;;;5035108;28;20060;-65
2021/12/24 13:27:37;;;;;;;3.92;1.30;;;21.30;54.50;;;;;;5035440;28;20044;-65
2021/12/24 13:30:17;;;;;;;6.50;1.48;;;21.30;54.50;;;;;;5034853;28;20164;-64
2021/12/24 13:32:52;;;;;;;3.50;1.15;;;21.30;54.60;;;;;;5036132;28;20057;-66
2021/12/24 13:35:23;;;;;;;4.47;1.30;;;21.30;54.60;;;;;;5034943;28;20051;-65
2021/12/24 13:37:49;;;;;;;4.57;1.17;;;21.30;54.60;;;;;;5034285;28;20045;-65
2021/12/24 13:40:17;;;;;;;5.85;1.30;;;21.30;54.60;;;;;;5035790;28;20041;-66
2021/12/24 13:42:48;;;;;;;3.10;1.20;;;21.30;54.60;;;;;;5034181;28;20124;-66
2021/12/24 13:45:14;;;;;;;3.05;1.20;;;21.30;54.60;;;;;;5036013;28;20053;-65
2021/12/24 13:47:58;;;;;;;4.88;1.30;;;21.40;54.70;;;;;;5033500;28;20045;-65
2021/12/24 13:54:30;;;;;;;2.83;1.10;;;21.40;54.70;;;;;;5035927;28;20135;-65
2021/12/24 13:55:54;;;;;;;4.60;1.30;;;21.40;54.70;;;;;;5033410;28;20080;-67
2021/12/24 13:58:20;;;;;;;6.63;1.45;;;21.40;54.60;;;;;;5034300;28;20153;-65
2021/12/24 14:00:48;;;;;;;3.72;1.10;;;21.40;54.40;;;;;;5035359;28;20050;-65
2021/12/24 14:03:14;;;;;;;4.80;1.25;;;21.40;54.50;;;;;;5033833;28;20038;-66
2021/12/24 14:05:44;;;;;;;2.63;1.02;;;21.40;54.30;;;;;;5034211;28;20127;-66
2021/12/24 14:08:11;;;;;;;2.95;1.10;;;21.40;54.40;;;;;;5033561;28;20092;-65
2021/12/24 14:10:38;;;;;;;4.10;1.20;;;21.40;54.50;;;;;;5035125;28;20052;-66
2021/12/24 14:13:08;;;;;;;4.05;1.10;;;21.40;54.50;;;;;;5034872;28;20049;-65
2021/12/24 14:15:46;;;;;;;4.35;1.08;;;21.40;54.50;;;;;;5034038;28;20120;-67
2021/12/24 14:18:42;;;;;;;;;;;21.40;54.50;;;;;;5019567;28;20042;-65
2021/12/24 14:24:22;;;;;;;3.58;0.88;;;21.40;54.30;;;;;;5032781;28;20075;-64
2021/12/24 14:26:56;;;;;;;1.42;0.70;;;21.40;54.30;;;;;;5033584;28;20038;-64
2021/12/24 14:29:28;;;;;;;4.05;0.90;;;21.40;54.30;;;;;;5031987;28;20053;-65
2021/12/24 14:32:03;;;;;;;3.75;0.70;;;21.40;54.30;;;;;;5033905;28;20045;-67